sensor_id;sensor_type;location;lat;lon;timestamp;temperature;humidity
4090;DHT22;2059;48.538;12.146;2023-06-14T00:04:13;18.20;59.00
4090;DHT22;2059;48.538;12.146;2023-06-14T00:09:17;17.90;59.00
4090;DHT22;2059;48.538;12.146;2023-06-14T00:14:20;17.90;59.50
4090;DHT22;2059;48.538;12.146;2023-06-14T00:19:21;17.70;59.80
4090;DHT22;2059;48.538;12.146;2023-06-14T00:24:23;17.50;60.30
4090;DHT22;2059;48.538;12.146;2023-06-14T00:29:26;17.50;60.90
4090;DHT22;2059;48.538;12.146;2023-06-14T00:34:28;17.70;62.00
4090;DHT22;2059;48.538;12.146;2023-06-14T00:39:30;17.40;63.40
4090;DHT22;2059;48.538;12.146;2023-06-14T00:44:33;17.20;63.70
4090;DHT22;2059;48.538;12.146;2023-06-14T00:49:35;17.10;63.10
4090;DHT22;2059;48.538;12.146;2023-06-14T00:54:36;16.90;63.20
4090;DHT22;2059;48.538;12.146;2023-06-14T00:59:43;16.90;63.20
4090;DHT22;2059;48.538;12.146;2023-06-14T01:04:47;16.90;63.40
4090;DHT22;2059;48.538;12.146;2023-06-14T01:09:58;16.90;63.60
4090;DHT22;2059;48.538;12.146;2023-06-14T01:15:07;16.70;64.20
4090;DHT22;2059;48.538;12.146;2023-06-14T01:20:11;16.60;64.90
4090;DHT22;2059;48.538;12.146;2023-06-14T01:25:16;16.60;64.20
4090;DHT22;2059;48.538;12.146;2023-06-14T01:30:22;16.80;63.70
4090;DHT22;2059;48.538;12.146;2023-06-14T01:35:25;16.60;64.10
4090;DHT22;2059;48.538;12.146;2023-06-14T01:40:30;16.50;64.60
4090;DHT22;2059;48.538;12.146;2023-06-14T01:45:32;16.70;63.90
4090;DHT22;2059;48.538;12.146;2023-06-14T01:50:34;16.50;64.80
4090;DHT22;2059;48.538;12.146;2023-06-14T01:55:37;16.40;64.60
4090;DHT22;2059;48.538;12.146;2023-06-14T02:00:43;16.10;66.70
4090;DHT22;2059;48.538;12.146;2023-06-14T02:05:45;15.90;67.60
4090;DHT22;2059;48.538;12.146;2023-06-14T02:10:49;15.80;67.80
4090;DHT22;2059;48.538;12.146;2023-06-14T02:15:50;16.00;67.40
4090;DHT22;2059;48.538;12.146;2023-06-14T02:20:55;15.70;68.30
4090;DHT22;2059;48.538;12.146;2023-06-14T02:25:58;15.90;68.30
4090;DHT22;2059;48.538;12.146;2023-06-14T02:31:00;15.60;70.20
4090;DHT22;2059;48.538;12.146;2023-06-14T02:36:02;15.50;71.00
4090;DHT22;2059;48.538;12.146;2023-06-14T02:41:05;15.40;71.20
4090;DHT22;2059;48.538;12.146;2023-06-14T02:46:07;15.50;71.60
4090;DHT22;2059;48.538;12.146;2023-06-14T02:51:08;15.60;70.80
4090;DHT22;2059;48.538;12.146;2023-06-14T02:56:12;15.70;71.30
4090;DHT22;2059;48.538;12.146;2023-06-14T03:01:13;15.60;71.30
4090;DHT22;2059;48.538;12.146;2023-06-14T03:06:15;15.50;71.20
4090;DHT22;2059;48.538;12.146;2023-06-14T03:11:19;15.30;71.70
4090;DHT22;2059;48.538;12.146;2023-06-14T03:16:21;14.80;73.30
4090;DHT22;2059;48.538;12.146;2023-06-14T03:21:24;15.00;73.70
4090;DHT22;2059;48.538;12.146;2023-06-14T03:26:28;15.40;72.50
4090;DHT22;2059;48.538;12.146;2023-06-14T03:31:31;15.10;74.50
4090;DHT22;2059;48.538;12.146;2023-06-14T03:36:34;15.20;74.30
4090;DHT22;2059;48.538;12.146;2023-06-14T03:41:38;15.10;75.20
4090;DHT22;2059;48.538;12.146;2023-06-14T03:46:40;14.90;76.00
4090;DHT22;2059;48.538;12.146;2023-06-14T03:51:42;14.80;77.00
4090;DHT22;2059;48.538;12.146;2023-06-14T03:56:45;14.90;76.70
4090;DHT22;2059;48.538;12.146;2023-06-14T04:01:47;14.90;77.10
4090;DHT22;2059;48.538;12.146;2023-06-14T04:06:49;15.00;77.40
4090;DHT22;2059;48.538;12.146;2023-06-14T04:12:13;14.80;79.90
4090;DHT22;2059;48.538;12.146;2023-06-14T04:17:16;14.80;79.20
4090;DHT22;2059;48.538;12.146;2023-06-14T04:22:18;14.90;79.10
4090;DHT22;2059;48.538;12.146;2023-06-14T04:27:21;14.60;80.60
4090;DHT22;2059;48.538;12.146;2023-06-14T04:32:26;15.00;80.00
4090;DHT22;2059;48.538;12.146;2023-06-14T04:37:30;15.00;79.90
4090;DHT22;2059;48.538;12.146;2023-06-14T04:42:33;14.90;80.80
4090;DHT22;2059;48.538;12.146;2023-06-14T04:47:38;15.10;80.20
4090;DHT22;2059;48.538;12.146;2023-06-14T04:52:40;15.20;80.50
4090;DHT22;2059;48.538;12.146;2023-06-14T04:57:44;15.30;80.40
4090;DHT22;2059;48.538;12.146;2023-06-14T05:02:46;15.50;80.70
4090;DHT22;2059;48.538;12.146;2023-06-14T05:07:51;15.50;80.80
4090;DHT22;2059;48.538;12.146;2023-06-14T05:12:54;15.60;81.00
4090;DHT22;2059;48.538;12.146;2023-06-14T05:17:56;15.90;80.70
4090;DHT22;2059;48.538;12.146;2023-06-14T05:22:58;15.80;81.70
4090;DHT22;2059;48.538;12.146;2023-06-14T05:28:01;16.00;80.20
4090;DHT22;2059;48.538;12.146;2023-06-14T05:33:03;16.20;79.10
4090;DHT22;2059;48.538;12.146;2023-06-14T05:38:05;16.50;77.70
4090;DHT22;2059;48.538;12.146;2023-06-14T05:43:09;16.60;78.50
4090;DHT22;2059;48.538;12.146;2023-06-14T05:48:11;16.90;77.40
4090;DHT22;2059;48.538;12.146;2023-06-14T05:53:13;17.10;77.10
4090;DHT22;2059;48.538;12.146;2023-06-14T05:58:16;17.40;76.80
4090;DHT22;2059;48.538;12.146;2023-06-14T06:03:18;17.50;75.80
4090;DHT22;2059;48.538;12.146;2023-06-14T06:08:20;17.80;76.40
4090;DHT22;2059;48.538;12.146;2023-06-14T06:13:23;18.10;76.30
4090;DHT22;2059;48.538;12.146;2023-06-14T06:18:25;18.60;72.50
4090;DHT22;2059;48.538;12.146;2023-06-14T06:23:26;18.90;69.90
4090;DHT22;2059;48.538;12.146;2023-06-14T06:28:29;19.20;66.70
4090;DHT22;2059;48.538;12.146;2023-06-14T06:33:31;19.40;65.00
4090;DHT22;2059;48.538;12.146;2023-06-14T06:38:33;19.50;64.30
4090;DHT22;2059;48.538;12.146;2023-06-14T06:43:36;19.60;64.50
4090;DHT22;2059;48.538;12.146;2023-06-14T06:48:38;19.90;62.30
4090;DHT22;2059;48.538;12.146;2023-06-14T06:53:42;20.10;61.20
4090;DHT22;2059;48.538;12.146;2023-06-14T06:58:45;20.30;61.60
4090;DHT22;2059;48.538;12.146;2023-06-14T07:03:48;20.70;60.40
4090;DHT22;2059;48.538;12.146;2023-06-14T07:08:49;20.90;60.20
4090;DHT22;2059;48.538;12.146;2023-06-14T07:13:53;20.80;59.90
4090;DHT22;2059;48.538;12.146;2023-06-14T07:18:54;21.00;60.10
4090;DHT22;2059;48.538;12.146;2023-06-14T07:23:56;21.20;59.60
4090;DHT22;2059;48.538;12.146;2023-06-14T07:28:59;21.50;59.90
4090;DHT22;2059;48.538;12.146;2023-06-14T07:34:01;21.80;60.50
4090;DHT22;2059;48.538;12.146;2023-06-14T07:39:03;22.10;60.00
4090;DHT22;2059;48.538;12.146;2023-06-14T07:44:07;22.40;59.30
4090;DHT22;2059;48.538;12.146;2023-06-14T07:49:09;22.80;58.20
4090;DHT22;2059;48.538;12.146;2023-06-14T07:54:11;22.80;57.40
4090;DHT22;2059;48.538;12.146;2023-06-14T07:59:14;22.80;57.60
4090;DHT22;2059;48.538;12.146;2023-06-14T08:04:16;22.70;58.00
4090;DHT22;2059;48.538;12.146;2023-06-14T08:09:17;22.90;57.60
4090;DHT22;2059;48.538;12.146;2023-06-14T08:14:21;23.10;57.40
4090;DHT22;2059;48.538;12.146;2023-06-14T08:19:22;23.20;58.30
4090;DHT22;2059;48.538;12.146;2023-06-14T08:24:24;23.30;57.70
4090;DHT22;2059;48.538;12.146;2023-06-14T08:29:28;23.60;56.60
4090;DHT22;2059;48.538;12.146;2023-06-14T08:34:31;23.50;57.50
4090;DHT22;2059;48.538;12.146;2023-06-14T08:39:33;23.50;57.80
4090;DHT22;2059;48.538;12.146;2023-06-14T08:44:36;23.60;58.00
4090;DHT22;2059;48.538;12.146;2023-06-14T08:49:38;23.60;55.80
4090;DHT22;2059;48.538;12.146;2023-06-14T08:54:43;23.80;56.30
4090;DHT22;2059;48.538;12.146;2023-06-14T08:59:47;24.30;57.20
4090;DHT22;2059;48.538;12.146;2023-06-14T09:04:53;25.00;56.20
4090;DHT22;2059;48.538;12.146;2023-06-14T09:10:07;25.20;55.80
4090;DHT22;2059;48.538;12.146;2023-06-14T09:15:10;25.10;54.40
4090;DHT22;2059;48.538;12.146;2023-06-14T09:20:12;25.30;53.70
4090;DHT22;2059;48.538;12.146;2023-06-14T09:25:18;25.50;54.30
4090;DHT22;2059;48.538;12.146;2023-06-14T09:30:21;25.60;51.70
4090;DHT22;2059;48.538;12.146;2023-06-14T09:35:23;25.80;52.30
4090;DHT22;2059;48.538;12.146;2023-06-14T09:40:25;26.00;50.80
4090;DHT22;2059;48.538;12.146;2023-06-14T09:45:28;26.20;50.90
4090;DHT22;2059;48.538;12.146;2023-06-14T09:50:32;26.30;51.20
4090;DHT22;2059;48.538;12.146;2023-06-14T09:55:36;26.30;48.40
4090;DHT22;2059;48.538;12.146;2023-06-14T10:00:40;26.50;50.90
4090;DHT22;2059;48.538;12.146;2023-06-14T10:05:45;26.60;49.60
4090;DHT22;2059;48.538;12.146;2023-06-14T10:10:48;26.10;49.50
4090;DHT22;2059;48.538;12.146;2023-06-14T10:15:57;26.00;49.70
4090;DHT22;2059;48.538;12.146;2023-06-14T10:21:05;26.10;48.70
4090;DHT22;2059;48.538;12.146;2023-06-14T10:26:19;26.50;50.10
4090;DHT22;2059;48.538;12.146;2023-06-14T10:31:23;26.40;48.80
4090;DHT22;2059;48.538;12.146;2023-06-14T10:36:42;26.10;49.30
4090;DHT22;2059;48.538;12.146;2023-06-14T10:41:52;25.70;48.80
4090;DHT22;2059;48.538;12.146;2023-06-14T10:46:56;25.60;50.20
4090;DHT22;2059;48.538;12.146;2023-06-14T10:51:59;25.90;49.00
4090;DHT22;2059;48.538;12.146;2023-06-14T10:57:01;25.40;49.50
4090;DHT22;2059;48.538;12.146;2023-06-14T11:02:20;25.10;50.70
4090;DHT22;2059;48.538;12.146;2023-06-14T11:07:41;24.90;51.20
4090;DHT22;2059;48.538;12.146;2023-06-14T11:12:47;25.20;49.70
4090;DHT22;2059;48.538;12.146;2023-06-14T11:17:53;25.10;51.50
4090;DHT22;2059;48.538;12.146;2023-06-14T11:22:56;25.20;50.60
4090;DHT22;2059;48.538;12.146;2023-06-14T11:27:58;25.90;51.20
4090;DHT22;2059;48.538;12.146;2023-06-14T11:33:02;26.10;49.60
4090;DHT22;2059;48.538;12.146;2023-06-14T11:38:03;25.90;50.60
4090;DHT22;2059;48.538;12.146;2023-06-14T11:43:05;26.30;49.00
4090;DHT22;2059;48.538;12.146;2023-06-14T11:48:08;26.60;46.20
4090;DHT22;2059;48.538;12.146;2023-06-14T11:53:10;26.60;49.20
4090;DHT22;2059;48.538;12.146;2023-06-14T11:58:13;27.20;46.90
4090;DHT22;2059;48.538;12.146;2023-06-14T12:03:17;26.90;46.40
4090;DHT22;2059;48.538;12.146;2023-06-14T12:08:32;26.40;46.20
4090;DHT22;2059;48.538;12.146;2023-06-14T12:13:39;26.20;46.50
4090;DHT22;2059;48.538;12.146;2023-06-14T12:18:43;26.20;47.20
4090;DHT22;2059;48.538;12.146;2023-06-14T12:23:47;26.60;46.70
4090;DHT22;2059;48.538;12.146;2023-06-14T12:28:49;26.90;45.40
4090;DHT22;2059;48.538;12.146;2023-06-14T12:33:52;27.30;44.80
4090;DHT22;2059;48.538;12.146;2023-06-14T12:38:54;27.90;45.50
4090;DHT22;2059;48.538;12.146;2023-06-14T12:43:55;27.40;45.30
4090;DHT22;2059;48.538;12.146;2023-06-14T12:48:59;27.80;44.20
4090;DHT22;2059;48.538;12.146;2023-06-14T12:54:01;28.10;44.40
4090;DHT22;2059;48.538;12.146;2023-06-14T12:59:03;27.50;46.70
4090;DHT22;2059;48.538;12.146;2023-06-14T13:04:06;27.10;47.00
4090;DHT22;2059;48.538;12.146;2023-06-14T13:09:08;26.90;47.30
4090;DHT22;2059;48.538;12.146;2023-06-14T13:14:10;26.60;47.90
4090;DHT22;2059;48.538;12.146;2023-06-14T13:19:13;26.40;49.60
4090;DHT22;2059;48.538;12.146;2023-06-14T13:24:15;26.30;49.00
4090;DHT22;2059;48.538;12.146;2023-06-14T13:29:17;26.40;47.60
4090;DHT22;2059;48.538;12.146;2023-06-14T13:34:20;26.30;48.40
4090;DHT22;2059;48.538;12.146;2023-06-14T13:39:21;26.40;49.00
4090;DHT22;2059;48.538;12.146;2023-06-14T13:44:23;26.80;48.10
4090;DHT22;2059;48.538;12.146;2023-06-14T13:49:26;27.30;45.30
4090;DHT22;2059;48.538;12.146;2023-06-14T13:54:28;27.00;48.00
4090;DHT22;2059;48.538;12.146;2023-06-14T13:59:30;26.80;46.70
4090;DHT22;2059;48.538;12.146;2023-06-14T14:04:34;26.60;45.90
4090;DHT22;2059;48.538;12.146;2023-06-14T14:09:36;26.60;47.90
4090;DHT22;2059;48.538;12.146;2023-06-14T14:14:39;26.50;46.60
4090;DHT22;2059;48.538;12.146;2023-06-14T14:19:43;26.50;46.10
4090;DHT22;2059;48.538;12.146;2023-06-14T14:24:44;26.60;46.70
4090;DHT22;2059;48.538;12.146;2023-06-14T14:29:47;26.50;46.20
4090;DHT22;2059;48.538;12.146;2023-06-14T14:34:50;26.20;44.80
4090;DHT22;2059;48.538;12.146;2023-06-14T14:39:52;26.50;45.80
4090;DHT22;2059;48.538;12.146;2023-06-14T14:44:54;26.80;48.50
4090;DHT22;2059;48.538;12.146;2023-06-14T14:49:57;27.10;48.60
4090;DHT22;2059;48.538;12.146;2023-06-14T14:54:59;26.90;46.50
4090;DHT22;2059;48.538;12.146;2023-06-14T15:00:01;26.40;47.50
4090;DHT22;2059;48.538;12.146;2023-06-14T15:05:05;25.90;47.80
4090;DHT22;2059;48.538;12.146;2023-06-14T15:10:07;25.70;47.30
4090;DHT22;2059;48.538;12.146;2023-06-14T15:15:10;25.50;47.00
4090;DHT22;2059;48.538;12.146;2023-06-14T15:20:13;25.50;46.80
4090;DHT22;2059;48.538;12.146;2023-06-14T15:25:15;25.40;48.40
4090;DHT22;2059;48.538;12.146;2023-06-14T15:30:17;25.80;47.70
4090;DHT22;2059;48.538;12.146;2023-06-14T15:35:20;25.90;45.80
4090;DHT22;2059;48.538;12.146;2023-06-14T15:40:22;26.50;46.60
4090;DHT22;2059;48.538;12.146;2023-06-14T15:45:24;26.70;45.50
4090;DHT22;2059;48.538;12.146;2023-06-14T15:50:28;26.30;46.30
4090;DHT22;2059;48.538;12.146;2023-06-14T15:55:29;26.00;44.90
4090;DHT22;2059;48.538;12.146;2023-06-14T16:00:31;25.80;46.10
4090;DHT22;2059;48.538;12.146;2023-06-14T16:05:34;25.80;48.00
4090;DHT22;2059;48.538;12.146;2023-06-14T16:10:36;26.00;46.30
4090;DHT22;2059;48.538;12.146;2023-06-14T16:15:38;26.30;47.10
4090;DHT22;2059;48.538;12.146;2023-06-14T16:20:41;26.70;45.80
4090;DHT22;2059;48.538;12.146;2023-06-14T16:25:42;28.30;45.10
4090;DHT22;2059;48.538;12.146;2023-06-14T16:30:44;27.60;44.30
4090;DHT22;2059;48.538;12.146;2023-06-14T16:35:47;27.80;45.40
4090;DHT22;2059;48.538;12.146;2023-06-14T16:40:49;31.00;41.40
4090;DHT22;2059;48.538;12.146;2023-06-14T16:45:51;31.40;41.10
4090;DHT22;2059;48.538;12.146;2023-06-14T16:50:54;35.30;37.10
4090;DHT22;2059;48.538;12.146;2023-06-14T16:55:55;32.30;38.20
4090;DHT22;2059;48.538;12.146;2023-06-14T17:00:57;30.90;40.70
4090;DHT22;2059;48.538;12.146;2023-06-14T17:06:00;31.50;40.10
4090;DHT22;2059;48.538;12.146;2023-06-14T17:11:02;34.60;36.70
4090;DHT22;2059;48.538;12.146;2023-06-14T17:16:05;35.70;34.20
4090;DHT22;2059;48.538;12.146;2023-06-14T17:21:09;32.60;37.60
4090;DHT22;2059;48.538;12.146;2023-06-14T17:26:11;30.00;41.00
4090;DHT22;2059;48.538;12.146;2023-06-14T17:31:12;28.40;41.60
4090;DHT22;2059;48.538;12.146;2023-06-14T17:36:15;27.20;43.40
4090;DHT22;2059;48.538;12.146;2023-06-14T17:41:18;26.70;44.30
4090;DHT22;2059;48.538;12.146;2023-06-14T17:46:19;26.20;45.00
4090;DHT22;2059;48.538;12.146;2023-06-14T17:51:22;25.80;46.50
4090;DHT22;2059;48.538;12.146;2023-06-14T17:56:26;25.40;47.00
4090;DHT22;2059;48.538;12.146;2023-06-14T18:01:27;25.10;48.10
4090;DHT22;2059;48.538;12.146;2023-06-14T18:06:30;24.80;49.00
4090;DHT22;2059;48.538;12.146;2023-06-14T18:11:32;24.60;49.40
4090;DHT22;2059;48.538;12.146;2023-06-14T18:16:34;24.40;49.90
4090;DHT22;2059;48.538;12.146;2023-06-14T18:21:37;24.30;50.60
4090;DHT22;2059;48.538;12.146;2023-06-14T18:26:40;24.20;51.00
4090;DHT22;2059;48.538;12.146;2023-06-14T18:31:41;23.90;51.40
4090;DHT22;2059;48.538;12.146;2023-06-14T18:36:45;23.80;51.90
4090;DHT22;2059;48.538;12.146;2023-06-14T18:41:46;23.60;52.40
4090;DHT22;2059;48.538;12.146;2023-06-14T18:46:48;23.40;53.10
4090;DHT22;2059;48.538;12.146;2023-06-14T18:51:51;23.20;53.50
4090;DHT22;2059;48.538;12.146;2023-06-14T18:56:59;23.20;54.10
4090;DHT22;2059;48.538;12.146;2023-06-14T19:02:12;23.10;54.40
4090;DHT22;2059;48.538;12.146;2023-06-14T19:07:15;22.90;54.90
4090;DHT22;2059;48.538;12.146;2023-06-14T19:12:17;22.80;55.70
4090;DHT22;2059;48.538;12.146;2023-06-14T19:17:19;22.60;55.10
4090;DHT22;2059;48.538;12.146;2023-06-14T19:22:22;22.50;55.50
4090;DHT22;2059;48.538;12.146;2023-06-14T19:27:24;22.60;55.40
4090;DHT22;2059;48.538;12.146;2023-06-14T19:32:26;22.40;55.70
4090;DHT22;2059;48.538;12.146;2023-06-14T19:37:29;22.30;56.00
4090;DHT22;2059;48.538;12.146;2023-06-14T19:42:32;22.20;56.00
4090;DHT22;2059;48.538;12.146;2023-06-14T19:47:34;22.20;56.50
4090;DHT22;2059;48.538;12.146;2023-06-14T19:52:37;22.20;56.50
4090;DHT22;2059;48.538;12.146;2023-06-14T19:57:39;22.10;57.00
4090;DHT22;2059;48.538;12.146;2023-06-14T20:02:41;21.90;57.60
4090;DHT22;2059;48.538;12.146;2023-06-14T20:07:44;21.90;57.80
4090;DHT22;2059;48.538;12.146;2023-06-14T20:12:45;21.90;57.60
4090;DHT22;2059;48.538;12.146;2023-06-14T20:17:47;21.80;58.20
4090;DHT22;2059;48.538;12.146;2023-06-14T20:22:50;21.80;58.20
4090;DHT22;2059;48.538;12.146;2023-06-14T20:27:52;21.60;58.50
4090;DHT22;2059;48.538;12.146;2023-06-14T20:32:54;21.60;58.40
4090;DHT22;2059;48.538;12.146;2023-06-14T20:37:57;21.70;58.90
4090;DHT22;2059;48.538;12.146;2023-06-14T20:42:58;21.60;58.20
4090;DHT22;2059;48.538;12.146;2023-06-14T20:48:04;21.60;57.50
4090;DHT22;2059;48.538;12.146;2023-06-14T20:53:07;21.50;58.20
4090;DHT22;2059;48.538;12.146;2023-06-14T20:58:09;21.40;58.20
4090;DHT22;2059;48.538;12.146;2023-06-14T21:03:11;21.50;57.50
4090;DHT22;2059;48.538;12.146;2023-06-14T21:08:14;21.40;58.30
4090;DHT22;2059;48.538;12.146;2023-06-14T21:13:18;21.10;59.20
4090;DHT22;2059;48.538;12.146;2023-06-14T21:18:20;21.00;60.00
4090;DHT22;2059;48.538;12.146;2023-06-14T21:23:23;21.00;59.50
4090;DHT22;2059;48.538;12.146;2023-06-14T21:28:25;21.00;59.80
4090;DHT22;2059;48.538;12.146;2023-06-14T21:33:26;20.90;59.50
4090;DHT22;2059;48.538;12.146;2023-06-14T21:38:29;20.90;59.40
4090;DHT22;2059;48.538;12.146;2023-06-14T21:43:32;20.90;60.00
4090;DHT22;2059;48.538;12.146;2023-06-14T21:48:34;20.80;60.60
4090;DHT22;2059;48.538;12.146;2023-06-14T21:53:37;20.70;61.10
4090;DHT22;2059;48.538;12.146;2023-06-14T21:58:39;20.60;61.80
4090;DHT22;2059;48.538;12.146;2023-06-14T22:03:41;20.50;62.20
4090;DHT22;2059;48.538;12.146;2023-06-14T22:08:44;20.50;62.50
4090;DHT22;2059;48.538;12.146;2023-06-14T22:13:47;20.40;63.30
4090;DHT22;2059;48.538;12.146;2023-06-14T22:18:49;20.30;63.60
4090;DHT22;2059;48.538;12.146;2023-06-14T22:23:53;20.30;63.90
4090;DHT22;2059;48.538;12.146;2023-06-14T22:28:57;20.30;64.50
4090;DHT22;2059;48.538;12.146;2023-06-14T22:34:05;20.20;65.20
4090;DHT22;2059;48.538;12.146;2023-06-14T22:39:09;20.20;64.80
4090;DHT22;2059;48.538;12.146;2023-06-14T22:44:12;20.10;64.90
4090;DHT22;2059;48.538;12.146;2023-06-14T22:49:17;20.20;65.00
4090;DHT22;2059;48.538;12.146;2023-06-14T22:54:20;20.10;66.00
4090;DHT22;2059;48.538;12.146;2023-06-14T22:59:21;20.10;66.70
4090;DHT22;2059;48.538;12.146;2023-06-14T23:04:25;20.00;66.60
4090;DHT22;2059;48.538;12.146;2023-06-14T23:09:28;20.10;66.80
4090;DHT22;2059;48.538;12.146;2023-06-14T23:14:30;20.00;67.50
4090;DHT22;2059;48.538;12.146;2023-06-14T23:19:31;19.90;68.30
4090;DHT22;2059;48.538;12.146;2023-06-14T23:24:35;19.80;69.10
4090;DHT22;2059;48.538;12.146;2023-06-14T23:29:37;19.70;68.50
4090;DHT22;2059;48.538;12.146;2023-06-14T23:34:42;19.80;68.20
4090;DHT22;2059;48.538;12.146;2023-06-14T23:39:45;19.80;68.10
4090;DHT22;2059;48.538;12.146;2023-06-14T23:44:50;19.60;69.10
4090;DHT22;2059;48.538;12.146;2023-06-14T23:49:52;19.60;68.70
4090;DHT22;2059;48.538;12.146;2023-06-14T23:54:55;19.40;69.40
4090;DHT22;2059;48.538;12.146;2023-06-14T23:59:57;19.30;69.70
